Time;durP1;ratioP1;P1;durP2;ratioP2;P2;SDS_P1;SDS_P2;PMS_P1;PMS_P2;Temp;Humidity;BMP_temperature;BMP_pressure;BME280_temperature;BME280_humidity;BME280_pressure;Samples;Min_cycle;Max_cycle;Signal;HPM_P1;HPM_P2
2021/06/25 00:01:00;;;;;;;11.57;10.48;;;17.40;99.90;;;;;;5012694;28;20049;-69
2021/06/25 00:03:27;;;;;;;11.10;10.10;;;17.30;99.90;;;;;;5007595;28;20306;-68
2021/06/25 00:05:54;;;;;;;10.70;9.13;;;17.30;99.90;;;;;;5008159;28;20160;-69
2021/06/25 00:08:21;;;;;;;11.40;10.20;;;17.30;99.90;;;;;;5008340;28;20073;-69
2021/06/25 00:10:48;;;;;;;11.70;10.55;;;17.30;99.90;;;;;;5008404;28;20050;-66
2021/06/25 00:13:15;;;;;;;11.20;10.13;;;17.20;99.90;;;;;;5006402;28;20078;-66
2021/06/25 00:15:42;;;;;;;13.55;12.25;;;17.20;99.90;;;;;;5008812;28;20115;-69
2021/06/25 00:18:09;;;;;;;12.00;10.73;;;17.20;99.90;;;;;;5005138;28;20053;-68
2021/06/25 00:20:36;;;;;;;10.73;9.68;;;17.20;99.90;;;;;;5007861;28;20097;-66
2021/06/25 00:23:03;;;;;;;13.38;12.18;;;17.20;99.90;;;;;;5008153;28;20073;-66
2021/06/25 00:25:32;;;;;;;12.63;11.32;;;17.20;99.90;;;;;;5008637;28;20045;-68
2021/06/25 00:27:59;;;;;;;12.13;10.93;;;17.20;99.90;;;;;;5007314;28;20063;-68
2021/06/25 00:30:26;;;;;;;12.85;11.55;;;17.20;99.90;;;;;;5009512;28;20104;-69
2021/06/25 00:32:53;;;;;;;13.35;12.13;;;17.20;99.90;;;;;;5006552;28;21577;-68
2021/06/25 00:35:21;;;;;;;12.95;11.65;;;17.20;99.90;;;;;;5007135;28;20080;-67
2021/06/25 00:37:48;;;;;;;10.20;9.18;;;17.20;99.90;;;;;;5005690;28;20111;-68
2021/06/25 00:40:15;;;;;;;14.23;10.57;;;17.20;99.90;;;;;;5008944;28;21437;-69
2021/06/25 00:42:42;;;;;;;12.45;11.25;;;17.20;99.90;;;;;;5008662;28;20049;-66
2021/06/25 00:45:11;;;;;;;12.45;11.35;;;17.20;99.90;;;;;;5008248;28;20045;-69
2021/06/25 00:47:38;;;;;;;11.88;10.73;;;17.20;99.90;;;;;;5007008;28;20139;-67
2021/06/25 00:50:06;;;;;;;13.05;11.77;;;17.20;99.90;;;;;;5006586;28;20503;-66
2021/06/25 00:52:34;;;;;;;12.75;11.43;;;17.20;99.90;;;;;;5007452;28;20054;-67
2021/06/25 00:55:01;;;;;;;12.55;11.38;;;17.20;99.90;;;;;;5008411;28;20041;-68
2021/06/25 00:57:28;;;;;;;12.77;11.52;;;17.20;99.90;;;;;;5007404;28;20052;-67
2021/06/25 00:59:54;;;;;;;12.48;11.20;;;17.20;99.90;;;;;;5005867;28;20115;-66
2021/06/25 01:02:22;;;;;;;12.38;11.18;;;17.20;99.90;;;;;;5007185;28;20145;-69
2021/06/25 01:04:51;;;;;;;11.60;10.50;;;17.30;99.90;;;;;;5010267;28;20149;-68
2021/06/25 01:07:18;;;;;;;12.40;11.35;;;17.20;99.90;;;;;;5006843;28;20751;-67
2021/06/25 01:09:45;;;;;;;12.52;11.30;;;17.20;99.90;;;;;;5008774;28;20613;-69
2021/06/25 01:12:13;;;;;;;13.07;11.68;;;17.30;99.90;;;;;;5003803;28;20136;-67
2021/06/25 01:14:40;;;;;;;12.15;10.93;;;17.30;99.90;;;;;;5006650;28;20057;-66
2021/06/25 01:17:27;;;;;;;17.38;13.52;;;17.30;99.90;;;;;;5008928;28;20053;-67
2021/06/25 01:19:54;;;;;;;12.02;10.75;;;17.30;99.90;;;;;;5006379;28;20045;-69
2021/06/25 01:22:26;;;;;;;13.18;11.32;;;17.30;99.90;;;;;;5006796;28;20725;-69
2021/06/25 01:24:52;;;;;;;15.98;14.32;;;17.30;99.90;;;;;;5008250;28;20104;-68
2021/06/25 01:27:19;;;;;;;14.75;13.20;;;17.30;99.90;;;;;;5007680;28;20148;-67
2021/06/25 01:29:46;;;;;;;17.27;14.07;;;17.30;99.90;;;;;;5009045;28;20057;-69
2021/06/25 01:32:13;;;;;;;16.33;14.13;;;17.30;99.90;;;;;;5006693;28;20077;-66
2021/06/25 01:34:40;;;;;;;17.13;15.45;;;17.30;99.90;;;;;;5008852;28;20053;-65
2021/06/25 01:37:08;;;;;;;15.43;14.02;;;17.30;99.90;;;;;;5007054;28;20073;-69
2021/06/25 01:39:35;;;;;;;16.00;14.40;;;17.30;99.90;;;;;;5009556;28;20476;-67
2021/06/25 01:42:02;;;;;;;16.55;14.75;;;17.30;99.90;;;;;;5006466;28;20973;-66
2021/06/25 01:44:29;;;;;;;16.15;14.45;;;17.30;99.90;;;;;;5008537;28;20111;-68
2021/06/25 01:46:56;;;;;;;15.82;14.27;;;17.30;99.90;;;;;;5008037;28;20072;-69
2021/06/25 01:49:23;;;;;;;17.30;15.75;;;17.30;99.90;;;;;;5006509;28;20037;-67
2021/06/25 01:51:50;;;;;;;13.30;12.00;;;17.30;99.90;;;;;;5005524;28;20065;-67
2021/06/25 01:54:17;;;;;;;13.10;11.80;;;17.30;99.90;;;;;;5006251;28;20053;-65
2021/06/25 01:56:44;;;;;;;14.63;13.35;;;17.30;99.90;;;;;;5005680;28;20171;-69
2021/06/25 01:59:12;;;;;;;15.15;13.60;;;17.30;99.90;;;;;;5006496;28;20080;-67
2021/06/25 02:01:39;;;;;;;18.20;15.20;;;17.30;99.90;;;;;;5007004;28;20130;-69
2021/06/25 02:04:06;;;;;;;12.93;11.52;;;17.30;99.90;;;;;;5004639;28;20148;-66
2021/06/25 02:06:33;;;;;;;15.00;13.18;;;17.30;99.90;;;;;;5006928;28;20136;-67
2021/06/25 02:09:01;;;;;;;15.00;13.40;;;17.30;99.90;;;;;;5007745;28;20048;-67
2021/06/25 02:11:28;;;;;;;16.27;14.68;;;17.30;99.90;;;;;;5007641;28;20037;-69
2021/06/25 02:13:55;;;;;;;15.30;13.90;;;17.30;99.90;;;;;;5006491;28;20054;-67
2021/06/25 02:16:24;;;;;;;13.93;12.40;;;17.30;99.90;;;;;;5006804;28;20527;-66
2021/06/25 02:18:51;;;;;;;15.27;13.65;;;17.30;99.90;;;;;;5020627;28;20301;-68
2021/06/25 02:21:18;;;;;;;14.77;13.25;;;17.30;99.90;;;;;;5006036;28;20142;-66
2021/06/25 02:23:45;;;;;;;21.30;14.95;;;17.30;99.90;;;;;;5006994;28;20130;-67
2021/06/25 02:26:12;;;;;;;18.17;15.10;;;17.30;99.90;;;;;;5003778;28;20061;-66
2021/06/25 02:28:39;;;;;;;18.05;13.65;;;17.20;99.90;;;;;;5005521;28;20049;-66
2021/06/25 02:31:06;;;;;;;16.90;14.85;;;17.30;99.90;;;;;;5008258;28;20053;-67
2021/06/25 02:33:33;;;;;;;14.80;13.27;;;17.30;99.90;;;;;;5005851;28;20057;-66
2021/06/25 02:36:00;;;;;;;15.27;13.68;;;17.20;99.90;;;;;;5005515;28;20504;-67
2021/06/25 02:38:27;;;;;;;16.63;14.95;;;17.20;99.90;;;;;;5004166;28;20077;-67
2021/06/25 02:40:54;;;;;;;16.30;12.95;;;17.20;99.90;;;;;;5006392;28;20064;-67
2021/06/25 02:43:21;;;;;;;16.25;13.98;;;17.20;99.90;;;;;;5007759;28;20052;-66
2021/06/25 02:45:47;;;;;;;19.48;14.95;;;17.20;99.90;;;;;;5007781;28;20107;-67
2021/06/25 02:48:14;;;;;;;18.55;15.35;;;17.20;99.90;;;;;;5007565;28;20069;-67
2021/06/25 02:50:41;;;;;;;15.90;14.02;;;17.20;99.90;;;;;;5006323;28;20142;-68
2021/06/25 02:53:09;;;;;;;19.48;17.45;;;17.10;99.90;;;;;;5008548;28;20060;-66
2021/06/25 02:55:36;;;;;;;17.77;15.85;;;17.10;99.90;;;;;;5008257;28;20493;-67
2021/06/25 02:58:03;;;;;;;18.65;15.93;;;17.10;99.90;;;;;;5006761;28;20537;-67
2021/06/25 03:00:30;;;;;;;17.55;15.75;;;17.10;99.90;;;;;;5007811;28;20057;-67
2021/06/25 03:02:57;;;;;;;16.70;15.02;;;17.10;99.90;;;;;;5008029;28;20050;-67
2021/06/25 03:05:24;;;;;;;18.95;16.65;;;17.10;99.90;;;;;;5008733;28;20586;-65
2021/06/25 03:07:51;;;;;;;16.13;13.55;;;17.10;99.90;;;;;;5006681;28;20340;-68
2021/06/25 03:10:18;;;;;;;16.73;13.35;;;17.10;99.90;;;;;;5010879;28;20168;-66
2021/06/25 03:12:45;;;;;;;15.98;14.38;;;17.10;99.90;;;;;;5012615;28;20160;-65
2021/06/25 03:15:12;;;;;;;13.90;12.30;;;17.10;99.90;;;;;;5011819;28;20464;-65
2021/06/25 03:17:39;;;;;;;15.75;14.15;;;17.00;99.90;;;;;;5011294;28;20050;-67
2021/06/25 03:20:07;;;;;;;15.55;14.05;;;17.10;99.90;;;;;;5010729;28;20140;-66
2021/06/25 03:22:34;;;;;;;15.88;14.23;;;17.10;99.90;;;;;;5011807;28;20741;-66
2021/06/25 03:25:02;;;;;;;17.40;15.70;;;17.00;99.90;;;;;;5011797;28;20053;-68
2021/06/25 03:27:29;;;;;;;14.75;13.25;;;17.10;99.90;;;;;;5012384;28;20107;-67
2021/06/25 03:29:56;;;;;;;14.25;12.50;;;17.10;99.90;;;;;;5010440;28;20049;-67
2021/06/25 03:32:23;;;;;;;16.23;14.52;;;17.10;99.90;;;;;;5012309;28;20073;-68
2021/06/25 03:34:50;;;;;;;17.13;15.38;;;17.10;99.90;;;;;;5011670;28;20682;-66
2021/06/25 03:37:17;;;;;;;16.10;13.32;;;17.00;99.90;;;;;;5011478;28;20148;-68
2021/06/25 03:39:44;;;;;;;14.93;13.43;;;17.10;99.90;;;;;;5011424;28;20049;-65
2021/06/25 03:42:11;;;;;;;14.93;13.43;;;17.10;99.90;;;;;;5010567;28;20057;-65
2021/06/25 03:44:38;;;;;;;15.00;12.98;;;17.10;99.90;;;;;;5009794;28;20053;-68
2021/06/25 03:47:05;;;;;;;14.35;12.85;;;17.10;99.90;;;;;;5011308;28;20050;-68
2021/06/25 03:49:32;;;;;;;14.60;13.23;;;17.10;99.90;;;;;;5010103;28;20095;-67
2021/06/25 03:51:59;;;;;;;15.90;14.25;;;17.10;99.90;;;;;;5009339;28;20053;-65
2021/06/25 03:54:26;;;;;;;13.35;12.05;;;17.10;99.90;;;;;;5010176;28;20054;-68
2021/06/25 03:56:53;;;;;;;12.05;10.85;;;17.20;99.90;;;;;;5011174;28;20643;-66
2021/06/25 03:59:20;;;;;;;15.32;13.77;;;17.20;99.90;;;;;;5010229;28;20869;-66
2021/06/25 04:01:47;;;;;;;15.73;14.32;;;17.20;99.90;;;;;;5010777;28;20718;-67
2021/06/25 04:04:14;;;;;;;12.25;11.07;;;17.20;99.90;;;;;;5008736;28;20067;-67
2021/06/25 04:06:41;;;;;;;14.88;13.38;;;17.20;99.90;;;;;;5010512;28;20757;-65
2021/06/25 04:09:08;;;;;;;14.43;13.05;;;17.20;99.90;;;;;;5009098;28;20041;-66
2021/06/25 04:11:35;;;;;;;15.18;13.43;;;17.20;99.90;;;;;;5011303;28;20076;-66
2021/06/25 04:14:03;;;;;;;13.00;11.73;;;17.30;99.90;;;;;;5009019;28;20503;-66
2021/06/25 04:16:30;;;;;;;13.73;11.73;;;17.20;99.90;;;;;;5010418;28;20264;-66
2021/06/25 04:18:57;;;;;;;13.70;12.30;;;17.20;99.90;;;;;;5010215;28;20251;-67
2021/06/25 04:21:24;;;;;;;13.60;12.20;;;17.20;99.90;;;;;;5004629;28;20049;-68
2021/06/25 04:23:51;;;;;;;14.32;12.82;;;17.20;99.90;;;;;;5007045;28;20099;-68
2021/06/25 04:26:18;;;;;;;13.15;11.95;;;17.20;99.90;;;;;;5010465;28;20045;-66
2021/06/25 04:28:45;;;;;;;13.55;12.07;;;17.20;99.90;;;;;;5009265;28;20046;-66
2021/06/25 04:31:12;;;;;;;12.43;11.23;;;17.20;99.90;;;;;;5009443;28;20333;-66
2021/06/25 04:33:39;;;;;;;11.05;10.05;;;17.20;99.90;;;;;;5009330;28;20053;-66
2021/06/25 04:36:06;;;;;;;10.25;9.35;;;17.20;99.90;;;;;;5009105;28;20091;-66
2021/06/25 04:38:34;;;;;;;11.85;10.68;;;17.20;99.90;;;;;;5008138;28;20054;-66
2021/06/25 04:41:02;;;;;;;10.15;9.25;;;17.20;99.90;;;;;;5006275;28;20057;-66
2021/06/25 04:43:29;;;;;;;11.20;10.20;;;17.20;99.90;;;;;;5008639;28;21916;-65
2021/06/25 04:45:58;;;;;;;9.07;8.27;;;17.20;99.90;;;;;;5008024;28;20045;-66
2021/06/25 04:48:26;;;;;;;8.98;8.07;;;17.20;99.90;;;;;;5007918;28;20483;-66
2021/06/25 04:50:53;;;;;;;7.32;6.63;;;17.00;99.90;;;;;;5009579;28;20049;-65
2021/06/25 04:53:20;;;;;;;8.60;7.18;;;16.90;99.90;;;;;;5007302;28;20691;-66
2021/06/25 04:55:47;;;;;;;6.95;6.35;;;16.90;99.90;;;;;;5009565;28;20474;-66
2021/06/25 04:58:17;;;;;;;8.63;7.53;;;16.80;99.90;;;;;;5006625;28;20590;-71
2021/06/25 05:00:45;;;;;;;7.83;7.13;;;16.80;99.90;;;;;;5009507;28;20063;-65
2021/06/25 05:03:12;;;;;;;8.20;7.35;;;16.70;99.90;;;;;;5006837;28;20045;-67
2021/06/25 05:05:41;;;;;;;9.15;7.10;;;16.70;99.90;;;;;;5008805;28;20072;-66
2021/06/25 05:08:09;;;;;;;8.20;7.57;;;16.70;99.90;;;;;;5006005;28;20053;-67
2021/06/25 05:10:37;;;;;;;8.30;7.50;;;16.70;99.90;;;;;;5009452;28;20303;-65
2021/06/25 05:13:05;;;;;;;6.22;5.63;;;16.70;99.90;;;;;;5009359;28;20107;-67
2021/06/25 05:15:32;;;;;;;6.78;6.18;;;16.60;99.90;;;;;;5008143;28;20065;-67
2021/06/25 05:18:14;;;;;;;8.43;6.22;;;16.70;99.90;;;;;;5007146;28;20144;-67
2021/06/25 05:21:00;;;;;;;6.68;5.75;;;16.60;99.90;;;;;;5008596;28;20049;-67
2021/06/25 05:23:28;;;;;;;6.65;5.43;;;16.50;99.90;;;;;;5009648;28;20188;-65
2021/06/25 05:25:56;;;;;;;6.70;5.43;;;16.50;99.90;;;;;;5006898;28;20045;-66
2021/06/25 05:28:23;;;;;;;7.43;5.88;;;16.50;99.90;;;;;;5009494;28;20119;-67
2021/06/25 05:30:50;;;;;;;8.27;7.45;;;16.40;99.90;;;;;;5009195;28;20232;-67
2021/06/25 05:33:17;;;;;;;5.28;4.82;;;16.50;99.90;;;;;;5008181;28;20518;-68
2021/06/25 05:35:44;;;;;;;5.97;5.47;;;16.50;99.90;;;;;;5009513;28;20041;-67
2021/06/25 05:38:14;;;;;;;10.50;6.38;;;16.50;99.90;;;;;;5005904;28;20053;-66
2021/06/25 05:40:41;;;;;;;7.70;6.63;;;16.50;99.90;;;;;;5008564;28;20141;-65
2021/06/25 05:43:09;;;;;;;5.45;5.05;;;16.60;99.90;;;;;;5007903;28;20136;-67
2021/06/25 05:45:37;;;;;;;7.13;6.18;;;16.70;99.90;;;;;;5007551;28;20444;-66
2021/06/25 05:48:04;;;;;;;5.68;5.20;;;16.70;99.90;;;;;;5006706;28;20077;-66
2021/06/25 05:50:32;;;;;;;7.00;5.65;;;16.80;99.90;;;;;;5008597;28;20096;-67
2021/06/25 05:52:59;;;;;;;6.03;5.53;;;16.90;99.90;;;;;;5006590;28;20519;-66
2021/06/25 05:55:26;;;;;;;6.53;5.93;;;17.00;99.90;;;;;;5008832;28;20140;-67
2021/06/25 05:57:53;;;;;;;6.90;6.30;;;17.00;99.90;;;;;;5007179;28;20107;-66
2021/06/25 06:00:20;;;;;;;6.60;5.90;;;17.00;99.90;;;;;;5005583;28;20069;-67
2021/06/25 06:02:47;;;;;;;11.80;5.88;;;17.00;99.90;;;;;;5007121;28;20053;-65
2021/06/25 06:05:21;;;;;;;8.20;5.07;;;17.00;99.90;;;;;;3767229;28;10024250;-66
2021/06/25 06:07:48;;;;;;;6.65;5.78;;;17.00;99.90;;;;;;2415692;28;10002069;-67
2021/06/25 06:10:16;;;;;;;8.48;6.40;;;17.00;99.90;;;;;;5006350;28;20057;-65
2021/06/25 06:12:44;;;;;;;6.90;6.20;;;17.00;99.90;;;;;;5007972;28;20176;-65
2021/06/25 06:15:13;;;;;;;8.43;6.88;;;17.10;99.90;;;;;;5006696;28;20080;-65
2021/06/25 06:17:42;;;;;;;10.48;6.50;;;17.10;99.90;;;;;;5006676;28;20150;-66
2021/06/25 06:20:14;;;;;;;6.15;5.55;;;17.20;99.90;;;;;;5007026;28;20129;-67
2021/06/25 06:36:23;;;;;;;6.28;5.20;;;17.10;99.90;;;;;;5004787;28;20073;-66
2021/06/25 06:38:56;;;;;;;6.43;5.28;;;17.10;99.90;;;;;;5007458;28;20045;-65
2021/06/25 06:41:25;;;;;;;5.82;5.32;;;17.10;99.90;;;;;;4964684;28;20069;-66
2021/06/25 06:43:52;;;;;;;8.18;5.65;;;17.10;99.90;;;;;;4963956;28;20551;-67
2021/06/25 06:46:19;;;;;;;6.15;5.47;;;17.00;99.90;;;;;;4974693;28;20076;-65
2021/06/25 06:48:47;;;;;;;6.95;5.40;;;16.90;99.90;;;;;;5004688;28;20038;-66
2021/06/25 06:51:18;;;;;;;9.55;6.72;;;16.90;99.90;;;;;;4985227;28;20041;-65
2021/06/25 06:53:45;;;;;;;7.78;5.30;;;16.90;99.90;;;;;;4961888;28;20074;-66
2021/06/25 06:56:17;;;;;;;6.30;5.78;;;16.80;99.90;;;;;;4971978;28;20519;-65
2021/06/25 06:58:48;;;;;;;8.52;6.25;;;16.80;99.90;;;;;;5004332;28;20063;-67
2021/06/25 07:01:15;;;;;;;10.00;7.10;;;16.80;99.90;;;;;;5016243;28;20065;-65
2021/06/25 07:04:05;;;;;;;6.70;6.05;;;17.00;99.90;;;;;;5010427;28;20200;-66
2021/06/25 07:06:32;;;;;;;8.80;6.20;;;17.10;99.90;;;;;;5013513;28;20049;-65
2021/06/25 07:08:59;;;;;;;6.28;5.43;;;17.20;99.90;;;;;;5012894;28;20053;-67
2021/06/25 07:11:26;;;;;;;9.60;6.72;;;17.30;99.90;;;;;;5013064;28;20069;-65
2021/06/25 07:13:53;;;;;;;7.93;6.47;;;17.40;99.90;;;;;;5011143;28;20057;-67
2021/06/25 07:16:20;;;;;;;4.95;4.47;;;17.50;99.90;;;;;;5012071;28;20171;-67
2021/06/25 07:18:47;;;;;;;5.97;5.47;;;17.50;99.90;;;;;;5012055;28;20572;-67
2021/06/25 07:21:15;;;;;;;5.47;4.60;;;17.60;99.90;;;;;;5027852;28;20053;-67
2021/06/25 07:23:42;;;;;;;7.32;5.35;;;17.70;99.90;;;;;;5012718;28;20045;-66
2021/06/25 07:26:08;;;;;;;4.72;4.30;;;17.80;99.90;;;;;;5011280;28;21221;-66
2021/06/25 07:28:36;;;;;;;5.03;4.63;;;17.80;99.90;;;;;;5012377;28;20270;-67
2021/06/25 07:31:03;;;;;;;4.50;4.10;;;17.70;99.90;;;;;;5013053;28;20045;-67
2021/06/25 07:33:31;;;;;;;5.78;5.25;;;17.70;99.90;;;;;;5011869;28;20057;-66
2021/06/25 07:35:58;;;;;;;7.50;5.13;;;17.70;99.90;;;;;;5012909;28;20041;-67
2021/06/25 07:38:25;;;;;;;6.60;4.70;;;17.80;99.90;;;;;;5010456;28;20045;-67
2021/06/25 07:40:52;;;;;;;6.43;4.57;;;17.80;99.90;;;;;;5013762;28;20049;-65
2021/06/25 07:43:19;;;;;;;6.07;4.85;;;17.90;99.90;;;;;;5012290;28;20396;-66
2021/06/25 07:45:47;;;;;;;5.18;4.65;;;17.90;99.90;;;;;;5009419;28;20041;-66
2021/06/25 07:48:15;;;;;;;5.63;5.13;;;18.00;99.90;;;;;;5005190;28;20069;-66
2021/06/25 07:50:42;;;;;;;5.47;4.05;;;18.00;99.90;;;;;;5008427;28;20060;-65
2021/06/25 07:53:10;;;;;;;4.15;3.75;;;18.00;99.90;;;;;;5005025;28;21066;-67
2021/06/25 07:55:44;;;;;;;6.05;4.80;;;18.10;99.90;;;;;;5007667;28;20084;-67
2021/06/25 07:58:15;;;;;;;5.90;5.40;;;18.00;99.90;;;;;;5002884;28;20231;-68
2021/06/25 08:00:43;;;;;;;5.03;4.50;;;17.90;99.90;;;;;;5007545;28;20049;-66
2021/06/25 08:03:10;;;;;;;5.90;5.50;;;18.00;99.90;;;;;;5005335;28;20793;-65
2021/06/25 08:05:37;;;;;;;4.53;4.13;;;18.00;99.90;;;;;;5010330;28;20583;-66
2021/06/25 08:08:05;;;;;;;5.78;4.32;;;17.90;99.90;;;;;;5010081;28;20041;-68
2021/06/25 08:10:33;;;;;;;5.05;4.55;;;18.00;99.90;;;;;;5012250;28;20045;-66
2021/06/25 08:13:01;;;;;;;6.38;4.60;;;18.00;99.90;;;;;;5009775;28;20041;-68
2021/06/25 08:15:28;;;;;;;5.45;5.00;;;18.00;99.90;;;;;;5013454;28;20392;-67
2021/06/25 08:17:55;;;;;;;5.72;3.97;;;18.10;99.90;;;;;;5010223;28;20117;-67
2021/06/25 08:20:23;;;;;;;4.45;3.33;;;18.20;99.90;;;;;;5012503;28;21301;-66
2021/06/25 08:22:50;;;;;;;7.80;4.72;;;18.30;99.90;;;;;;5011737;28;20077;-66
2021/06/25 08:25:17;;;;;;;6.05;5.50;;;18.40;99.90;;;;;;5012940;28;20041;-66
2021/06/25 08:27:43;;;;;;;5.75;5.00;;;18.50;99.90;;;;;;5010713;28;20518;-67
2021/06/25 08:30:12;;;;;;;7.00;5.32;;;18.60;99.90;;;;;;5010586;28;20203;-66
2021/06/25 08:32:38;;;;;;;4.82;4.43;;;18.70;99.90;;;;;;5011514;28;20148;-65
2021/06/25 08:35:07;;;;;;;7.75;4.82;;;18.90;99.90;;;;;;5012132;28;20061;-66
2021/06/25 08:37:34;;;;;;;4.82;4.38;;;19.00;99.90;;;;;;5010832;28;20195;-68
2021/06/25 08:40:04;;;;;;;6.72;4.63;;;19.10;99.90;;;;;;5010623;28;20140;-68
2021/06/25 08:42:31;;;;;;;6.55;4.57;;;19.10;99.90;;;;;;5010947;28;20167;-66
2021/06/25 08:44:59;;;;;;;5.05;4.55;;;19.10;99.90;;;;;;5012604;28;20053;-66
2021/06/25 08:47:26;;;;;;;7.07;5.20;;;19.30;99.90;;;;;;5011777;28;20087;-67
2021/06/25 08:50:03;;;;;;;5.22;4.32;;;19.40;99.90;;;;;;5004364;28;20041;-66
2021/06/25 08:52:30;;;;;;;5.47;4.55;;;19.40;99.90;;;;;;4992233;28;20121;-68
2021/06/25 08:54:57;;;;;;;8.73;4.65;;;19.10;99.90;;;;;;5005553;28;20135;-66
2021/06/25 08:57:24;;;;;;;5.32;4.82;;;19.00;99.90;;;;;;5004631;28;20466;-68
2021/06/25 08:59:51;;;;;;;7.20;4.28;;;19.00;99.90;;;;;;5004726;28;20523;-66
2021/06/25 09:02:19;;;;;;;4.70;3.45;;;19.00;99.90;;;;;;5004573;28;20136;-67
2021/06/25 09:04:47;;;;;;;6.47;3.97;;;18.90;99.90;;;;;;5004245;28;20057;-67
2021/06/25 09:07:15;;;;;;;5.93;4.88;;;18.80;99.90;;;;;;5005369;28;20060;-67
2021/06/25 09:09:44;;;;;;;5.30;4.60;;;18.80;99.90;;;;;;5009151;28;20298;-67
2021/06/25 09:12:25;;;;;;;8.27;5.00;;;18.70;99.90;;;;;;5009432;28;20061;-66
2021/06/25 09:15:05;;;;;;;5.78;4.95;;;18.70;99.90;;;;;;5008075;28;20076;-68
2021/06/25 09:17:33;;;;;;;;;;;18.70;99.90;;;;;;5011694;28;20411;-66
2021/06/25 09:20:02;;;;;;;5.68;4.25;;;18.60;99.90;;;;;;5008937;28;19940;-68
2021/06/25 09:22:28;;;;;;;6.97;4.80;;;18.50;99.90;;;;;;5009595;28;20143;-65
2021/06/25 09:25:07;;;;;;;4.70;4.30;;;18.40;99.90;;;;;;5009940;28;20041;-67
2021/06/25 09:27:36;;;;;;;8.05;4.95;;;18.20;99.90;;;;;;5012844;28;20073;-67
2021/06/25 09:30:11;;;;;;;3.80;3.42;;;18.10;99.90;;;;;;5009330;28;20204;-65
2021/06/25 09:32:49;;;;;;;5.82;5.03;;;18.10;99.90;;;;;;5010477;28;20811;-67
2021/06/25 09:35:24;;;;;;;6.80;4.10;;;18.20;99.90;;;;;;5010408;28;20094;-67
2021/06/25 09:37:53;;;;;;;5.25;4.78;;;18.00;99.90;;;;;;5009302;28;20061;-65
2021/06/25 09:40:21;;;;;;;5.68;5.05;;;17.80;99.90;;;;;;5010119;28;20487;-67
2021/06/25 09:43:12;;;;;;;5.93;4.47;;;17.80;99.90;;;;;;5011366;28;20045;-66
2021/06/25 09:45:49;;;;;;;6.45;5.55;;;17.70;99.90;;;;;;5010098;28;20056;-67
2021/06/25 09:48:16;;;;;;;6.18;3.90;;;17.80;99.90;;;;;;5009728;28;20053;-65
2021/06/25 09:50:45;;;;;;;4.70;4.30;;;17.80;99.90;;;;;;5010146;28;20041;-66
2021/06/25 09:53:11;;;;;;;6.15;3.83;;;17.90;99.90;;;;;;5008405;28;20119;-66
2021/06/25 09:55:54;;;;;;;4.97;4.45;;;18.00;99.90;;;;;;5004510;28;20646;-68
2021/06/25 10:04:02;;;;;;;5.13;3.80;;;18.10;99.90;;;;;;5003402;28;19951;-66
2021/06/25 10:06:31;;;;;;;4.47;3.40;;;18.10;99.90;;;;;;5003931;28;20073;-66
2021/06/25 10:08:59;;;;;;;7.72;4.03;;;18.10;99.90;;;;;;5005742;28;20083;-68
2021/06/25 10:11:31;;;;;;;3.28;2.95;;;18.00;99.90;;;;;;4996155;28;20623;-66
2021/06/25 10:14:00;;;;;;;3.25;2.95;;;18.10;99.90;;;;;;5005249;28;20049;-66
2021/06/25 10:16:28;;;;;;;3.42;3.20;;;18.10;99.90;;;;;;5005630;28;21086;-65
2021/06/25 10:18:58;;;;;;;5.10;4.28;;;18.10;99.90;;;;;;5004367;28;20454;-65
2021/06/25 10:21:31;;;;;;;3.05;2.75;;;18.10;99.90;;;;;;5007614;28;20064;-67
2021/06/25 10:24:01;;;;;;;3.58;2.55;;;18.10;99.90;;;;;;5008500;28;20458;-66
2021/06/25 10:26:29;;;;;;;;;;;18.10;99.90;;;;;;5006618;28;20072;-65
2021/06/25 10:28:57;;;;;;;4.25;3.85;;;18.10;99.90;;;;;;5009578;28;19964;-66
2021/06/25 10:31:25;;;;;;;4.63;4.18;;;18.10;99.90;;;;;;5008652;28;20489;-68
2021/06/25 10:33:54;;;;;;;3.53;3.20;;;18.10;99.90;;;;;;5007729;28;20049;-66
2021/06/25 10:36:31;;;;;;;3.35;2.63;;;18.10;99.90;;;;;;5007922;28;20139;-67
2021/06/25 10:39:13;;;;;;;5.72;4.00;;;18.10;99.90;;;;;;5010023;28;20140;-68
2021/06/25 10:41:51;;;;;;;3.80;3.38;;;18.10;99.90;;;;;;5008846;28;20072;-65
2021/06/25 10:44:42;;;;;;;3.55;3.25;;;18.10;99.90;;;;;;5009506;28;20050;-66
2021/06/25 10:47:18;;;;;;;;;;;18.10;99.90;;;;;;5008888;28;20081;-67
2021/06/25 10:50:05;;;;;;;4.32;3.30;;;18.20;99.90;;;;;;5010544;28;20071;-67
2021/06/25 10:52:34;;;;;;;5.20;3.33;;;18.30;99.90;;;;;;5007488;28;20548;-66
2021/06/25 10:55:02;;;;;;;3.88;3.17;;;18.30;99.90;;;;;;5009626;28;20053;-67
2021/06/25 10:57:30;;;;;;;5.43;3.72;;;18.40;99.90;;;;;;5004937;28;20195;-67
2021/06/25 10:59:57;;;;;;;7.03;3.58;;;18.40;99.90;;;;;;5005485;28;20053;-66
2021/06/25 11:02:44;;;;;;;3.90;3.47;;;18.50;99.90;;;;;;5008576;28;20431;-68
2021/06/25 11:05:26;;;;;;;5.70;3.42;;;18.50;99.90;;;;;;5004796;28;20182;-67
2021/06/25 11:08:00;;;;;;;4.80;4.20;;;18.60;99.90;;;;;;5005280;28;20172;-66
2021/06/25 11:10:32;;;;;;;3.90;3.42;;;18.60;99.90;;;;;;5010395;28;20053;-65
2021/06/25 11:13:27;;;;;;;3.92;2.85;;;18.70;99.90;;;;;;5008493;28;20041;-67
2021/06/25 11:15:59;;;;;;;4.32;3.38;;;18.80;99.90;;;;;;5007390;28;20049;-66
2021/06/25 11:18:28;;;;;;;3.92;2.72;;;18.80;99.90;;;;;;5008663;28;20050;-65
2021/06/25 11:21:07;;;;;;;4.90;3.17;;;18.80;99.90;;;;;;5006539;28;20054;-68
2021/06/25 11:23:37;;;;;;;3.58;2.90;;;18.80;99.90;;;;;;5004053;28;20054;-66
2021/06/25 11:26:13;;;;;;;3.42;2.72;;;18.90;99.90;;;;;;5004624;28;20135;-68
2021/06/25 11:28:44;;;;;;;4.03;2.92;;;19.10;99.90;;;;;;5005410;28;20053;-68
2021/06/25 11:31:14;;;;;;;4.88;2.63;;;19.20;99.90;;;;;;5003901;28;20042;-68
2021/06/25 11:33:47;;;;;;;3.47;3.17;;;19.50;99.90;;;;;;5010919;28;20037;-65
2021/06/25 11:36:33;;;;;;;4.53;2.75;;;19.60;99.90;;;;;;5009958;28;20752;-66
2021/06/25 11:39:03;;;;;;;3.20;2.88;;;19.60;99.90;;;;;;5007865;28;20069;-67
2021/06/25 11:41:50;;;;;;;3.80;3.00;;;19.60;99.90;;;;;;5012199;28;20054;-67
2021/06/25 11:44:18;;;;;;;2.97;2.67;;;19.40;99.90;;;;;;5010112;28;20050;-66
2021/06/25 11:46:56;;;;;;;3.15;2.85;;;19.30;99.90;;;;;;5009668;28;20052;-66
2021/06/25 11:49:34;;;;;;;3.97;3.35;;;19.30;99.90;;;;;;5011246;28;20146;-66
2021/06/25 11:52:05;;;;;;;3.00;2.75;;;19.20;99.90;;;;;;5008257;28;20119;-68
2021/06/25 11:54:35;;;;;;;5.65;3.28;;;19.20;99.90;;;;;;5011680;28;20049;-66
2021/06/25 11:57:03;;;;;;;3.83;3.40;;;19.20;99.90;;;;;;5009016;28;20078;-68
2021/06/25 11:59:30;;;;;;;3.92;3.50;;;19.40;99.90;;;;;;5012216;28;20395;-66
2021/06/25 12:01:59;;;;;;;4.25;3.83;;;19.50;99.90;;;;;;5005016;28;20080;-66
2021/06/25 12:04:42;;;;;;;4.13;3.30;;;19.50;99.90;;;;;;5011465;28;20440;-68
2021/06/25 12:07:12;;;;;;;4.63;2.95;;;19.50;99.90;;;;;;5010345;28;20535;-67
2021/06/25 12:09:41;;;;;;;4.70;4.30;;;19.60;99.90;;;;;;5005708;28;20112;-66
2021/06/25 12:12:10;;;;;;;3.55;2.67;;;19.60;99.90;;;;;;5008033;28;20179;-65
2021/06/25 12:14:43;;;;;;;4.13;3.83;;;19.70;99.90;;;;;;5011845;28;20045;-68
2021/06/25 12:17:10;;;;;;;4.40;3.22;;;19.60;99.90;;;;;;5008551;28;20148;-67
2021/06/25 12:19:38;;;;;;;4.85;3.85;;;19.60;99.90;;;;;;5011949;28;21030;-67
2021/06/25 12:22:09;;;;;;;3.80;3.28;;;19.60;99.90;;;;;;5008460;28;20048;-68
2021/06/25 12:25:02;;;;;;;3.80;2.60;;;19.50;99.90;;;;;;5010452;28;20057;-66
2021/06/25 12:27:41;;;;;;;3.65;3.33;;;19.40;99.90;;;;;;5008638;28;20076;-66
2021/06/25 12:30:13;;;;;;;3.83;2.70;;;19.50;99.90;;;;;;5009986;28;20076;-67
2021/06/25 12:32:40;;;;;;;4.30;3.25;;;19.50;99.90;;;;;;5007358;28;20135;-67
2021/06/25 12:35:09;;;;;;;4.95;3.30;;;19.70;99.90;;;;;;5006602;28;20466;-66
2021/06/25 12:37:49;;;;;;;2.78;2.55;;;19.90;99.90;;;;;;5010199;28;20053;-69
2021/06/25 12:40:55;;;;;;;3.95;2.75;;;20.20;99.90;;;;;;5009149;28;20045;-67
2021/06/25 12:43:34;;;;;;;2.97;2.65;;;20.50;99.90;;;;;;5009222;28;20061;-67
2021/06/25 12:46:12;;;;;;;4.57;2.55;;;20.90;99.90;;;;;;5007919;28;20050;-68
2021/06/25 12:49:00;;;;;;;7.10;4.00;;;21.00;99.90;;;;;;5009120;28;20125;-66
2021/06/25 12:51:34;;;;;;;3.50;3.17;;;20.60;99.90;;;;;;5007382;28;20074;-68
2021/06/25 12:54:02;;;;;;;6.03;3.33;;;20.60;99.90;;;;;;5009226;28;20594;-68
2021/06/25 12:56:29;;;;;;;3.85;3.50;;;20.40;99.90;;;;;;5009287;28;20084;-68
2021/06/25 12:59:04;;;;;;;3.67;3.15;;;20.20;99.90;;;;;;5010887;28;20073;-66
2021/06/25 13:01:38;;;;;;;2.88;2.67;;;19.90;99.90;;;;;;5010636;28;20072;-66
2021/06/25 13:04:25;;;;;;;4.05;3.33;;;20.00;99.90;;;;;;5006369;28;20480;-68
2021/06/25 13:06:54;;;;;;;6.28;3.58;;;19.90;99.90;;;;;;5008157;28;20045;-66
2021/06/25 13:09:34;;;;;;;5.70;3.88;;;19.90;99.90;;;;;;5009795;28;20148;-66
2021/06/25 13:12:34;;;;;;;3.90;3.30;;;19.90;99.90;;;;;;5007199;28;20076;-67